»·PEaware :: N227T S10-KSZT

N227T :: S10-KSZT

FLIGHT INFORMATION

Flight Status: Arrived
Operator: Privately registered:
United States
More flights under this callsign
Pilot: Bill H. (23183)
Aircraft: CESSNA 172 SKYHAWK
(C172)
More flights by this aircraft type
Origin: S10 Chelan Mun
United States
Destination: KSZT Sandpoint
United States
More flights between these airports :: More routes between these airports
Route: S10 - KSZT
File this flight plan on PilotEdge
Remarks: Practice Flight
Altitude:
(Current/Filed)
3,500
Speed:
(Current/Filed)
110kts
Departed: 11-Feb-19 01:48 PM
Arrived: 11-Feb-19 03:01 PM
Distance/Time
Traveled:
138nm/1:13
Distance/Time
To Go:
Arrived

Flight Plot

Page will automatically refresh every two minutes.

Flight plan parsing failed; only flown route is shown


Map Options




Map Legend


Flown Route
Filed Route
Departure Airport
Arrival Airport
Navaid (VOR, NDB)
Fix

Horizontal Profiles

Position Reports

Time Latitude Longitude Heading Altitude Ground
Speed
11-Feb-19 13:38 47.865841 -119.944596 43 1260ft 0kts
11-Feb-19 13:39 47.865841 -119.944596 43 1260ft 0kts
11-Feb-19 13:40 47.865841 -119.944596 43 1260ft 0kts
11-Feb-19 13:41 47.865841 -119.944596 43 1260ft 0kts
11-Feb-19 13:42 47.865749 -119.943925 50 1259ft 4kts
11-Feb-19 13:43 47.867057 -119.942061 45 1257ft 10kts
11-Feb-19 13:44 47.869285 -119.938684 55 1257ft 10kts
11-Feb-19 13:45 47.869494 -119.938228 65 1257ft 0kts
11-Feb-19 13:46 47.868614 -119.938921 224 1256ft 20kts
11-Feb-19 13:47 47.855627 -119.959154 227 1917ft 74kts
11-Feb-19 13:48 47.844238 -119.967357 49 2555ft 92kts
11-Feb-19 13:49 47.862765 -119.938493 57 3237ft 96kts
11-Feb-19 13:50 47.872105 -119.900280 75 3843ft 98kts
11-Feb-19 13:51 47.879787 -119.848868 77 3492ft 132kts
11-Feb-19 13:52 47.887113 -119.797749 77 3506ft 119kts
11-Feb-19 13:53 47.894290 -119.747578 77 3507ft 118kts
11-Feb-19 13:54 47.901413 -119.697845 77 3507ft 118kts
11-Feb-19 13:55 47.908425 -119.648055 77 3507ft 118kts
11-Feb-19 13:56 47.915544 -119.597540 77 3507ft 118kts
11-Feb-19 13:57 47.922525 -119.547958 77 3507ft 118kts
11-Feb-19 13:58 47.929499 -119.498493 77 3507ft 118kts
11-Feb-19 13:59 47.936495 -119.448254 77 3507ft 118kts
11-Feb-19 14:00 47.943319 -119.399299 77 3507ft 118kts
11-Feb-19 14:01 47.950066 -119.350740 77 3507ft 118kts
11-Feb-19 14:02 47.956732 -119.302614 78 3507ft 118kts
11-Feb-19 14:03 47.963786 -119.251607 78 3507ft 118kts
11-Feb-19 14:04 47.971045 -119.200773 77 3507ft 118kts
11-Feb-19 14:05 47.978113 -119.150537 78 3507ft 118kts
11-Feb-19 14:06 47.985028 -119.100322 78 3623ft 110kts
11-Feb-19 14:07 47.991078 -119.056459 78 4123ft 112kts
11-Feb-19 14:08 47.997367 -119.010389 78 4621ft 114kts
11-Feb-19 14:09 48.003847 -118.962706 78 5134ft 114kts
11-Feb-19 14:10 48.010404 -118.914147 78 5506ft 123kts
11-Feb-19 14:11 48.017598 -118.860546 78 5501ft 130kts
11-Feb-19 14:12 48.024838 -118.806518 78 5501ft 130kts
11-Feb-19 14:13 48.032067 -118.752399 78 5501ft 130kts
11-Feb-19 14:14 48.039198 -118.698818 78 5501ft 130kts
11-Feb-19 14:15 48.045997 -118.647542 78 5501ft 130kts
11-Feb-19 14:16 48.052947 -118.594933 78 5501ft 131kts
11-Feb-19 14:17 48.059856 -118.542438 78 5628ft 122kts
11-Feb-19 14:18 48.066274 -118.493631 78 6133ft 113kts
11-Feb-19 14:19 48.071166 -118.456305 78 6539ft 111kts
11-Feb-19 14:20 48.076445 -118.415891 78 6986ft 110kts
11-Feb-19 14:21 48.082468 -118.369642 78 7504ft 108kts
11-Feb-19 14:22 48.089043 -118.318746 79 7500ft 127kts
11-Feb-19 14:23 48.096065 -118.264266 79 7500ft 128kts
11-Feb-19 14:24 48.102983 -118.210395 79 7500ft 128kts
11-Feb-19 14:25 48.109900 -118.156352 79 7500ft 128kts
11-Feb-19 14:26 48.116753 -118.102620 79 7500ft 128kts
11-Feb-19 14:27 48.123576 -118.048903 79 7500ft 128kts
11-Feb-19 14:28 48.130390 -117.995056 79 7500ft 128kts
11-Feb-19 14:29 48.137165 -117.941300 79 7500ft 128kts
11-Feb-19 14:30 48.143916 -117.887527 79 7500ft 129kts
11-Feb-19 14:31 48.150924 -117.831470 79 7500ft 129kts
11-Feb-19 14:32 48.156695 -117.785136 79 7500ft 129kts
11-Feb-19 14:33 48.163400 -117.731098 79 7500ft 129kts
11-Feb-19 14:34 48.170220 -117.675919 79 7500ft 129kts
11-Feb-19 14:35 48.177051 -117.620410 79 7500ft 129kts
11-Feb-19 14:36 48.183732 -117.566740 79 7500ft 123kts
11-Feb-19 14:37 48.190075 -117.514027 79 7500ft 123kts
11-Feb-19 14:38 48.196362 -117.462114 79 7500ft 123kts
11-Feb-19 14:39 48.202558 -117.410919 79 7500ft 123kts
11-Feb-19 14:40 48.208775 -117.359385 79 7500ft 123kts
11-Feb-19 14:41 48.215007 -117.307513 79 7500ft 123kts
11-Feb-19 14:42 48.211843 -117.255621 99 7500ft 123kts
11-Feb-19 14:43 48.205778 -117.199607 99 7127ft 141kts
11-Feb-19 14:44 48.199841 -117.144565 99 6612ft 124kts
11-Feb-19 14:45 48.194289 -117.092627 99 6005ft 126kts
11-Feb-19 14:46 48.188759 -117.040525 99 4991ft 124kts
11-Feb-19 14:47 48.182811 -116.994571 103 4963ft 102kts
11-Feb-19 14:48 48.175404 -116.949424 103 4646ft 118kts
11-Feb-19 14:49 48.167215 -116.899488 103 4140ft 122kts
11-Feb-19 14:50 48.159460 -116.851598 103 3963ft 112kts
11-Feb-19 14:51 48.153464 -116.803875 92 3454ft 111kts
11-Feb-19 14:52 48.164285 -116.762326 60 3100ft 99kts
11-Feb-19 14:53 48.179570 -116.727622 37 3138ft 95kts
11-Feb-19 14:54 48.202381 -116.702239 36 2997ft 105kts
11-Feb-19 14:55 48.226660 -116.678778 23 3033ft 97kts
11-Feb-19 14:56 48.248446 -116.657595 93 2911ft 117kts
11-Feb-19 14:57 48.246116 -116.610627 68 2851ft 105kts
11-Feb-19 14:58 48.268060 -116.582567 19 2813ft 105kts
11-Feb-19 14:59 48.288413 -116.570607 30 2277ft 60kts
11-Feb-19 15:00 48.299452 -116.560212 31 2132ft 22kts
11-Feb-19 15:01 48.300137 -116.558907 134 2130ft 4kts
11-Feb-19 15:02 48.296855 -116.561687 213 2133ft 17kts
11-Feb-19 15:03 48.294265 -116.563558 132 2130ft 3kts
11-Feb-19 15:04 48.294612 -116.563246 300 2130ft 0kts
11-Feb-19 15:05 48.298355 -116.561240 30 2132ft 30kts
11-Feb-19 15:06 48.262213 -116.587009 29 2831ft 104kts
11-Feb-19 15:08 48.280992 -116.576011 14 2513ft 69kts
11-Feb-19 15:09 48.292557 -116.566699 29 2158ft 56kts
11-Feb-19 15:10 48.299693 -116.559985 31 2132ft 18kts
11-Feb-19 15:11 48.300174 -116.558983 122 2130ft 0kts
11-Feb-19 15:12 48.298798 -116.559854 212 2130ft 14kts
11-Feb-19 15:13 48.296024 -116.562463 212 2132ft 15kts

Navigation Log

Ident Type
Flight plan parsing failed, navigation log unavailable